Time;durP1;ratioP1;P1;durP2;ratioP2;P2;SDS_P1;SDS_P2;PMS_P1;PMS_P2;Temp;Humidity;BMP_temperature;BMP_pressure;BME280_temperature;BME280_humidity;BME280_pressure;Samples;Min_cycle;Max_cycle;Signal;HPM_P1;HPM_P2
2024/04/01 00:00:30;;;;;;;28.65;15.13;;;8.50;99.90;;;13.88;100.00;98765.09;5055003;28;20056;-82
2024/04/01 00:02:55;;;;;;;26.98;15.60;;;8.40;99.90;;;13.70;100.00;98761.13;5055326;28;20170;-83
2024/04/01 00:05:21;;;;;;;25.85;15.27;;;8.40;99.90;;;13.61;100.00;98743.63;5055082;28;20064;-80
2024/04/01 00:07:49;;;;;;;25.98;15.43;;;8.30;99.90;;;13.62;100.00;98757.06;5037104;28;20041;-82
2024/04/01 00:10:15;;;;;;;30.85;14.88;;;8.20;99.90;;;13.52;100.00;98743.41;5055145;28;20044;-83
2024/04/01 00:12:40;;;;;;;29.70;16.08;;;8.10;99.90;;;13.44;100.00;98731.13;5055068;28;20045;-83
2024/04/01 00:15:06;;;;;;;30.02;15.80;;;8.20;99.90;;;13.40;100.00;98740.16;5054934;28;20110;-83
2024/04/01 00:17:32;;;;;;;24.23;15.90;;;8.20;99.90;;;13.52;100.00;98748.88;5037026;28;20397;-83
2024/04/01 00:19:58;;;;;;;29.63;15.90;;;8.20;99.90;;;13.31;100.00;98745.41;5054852;28;20044;-82
2024/04/01 00:22:23;;;;;;;25.70;16.38;;;8.20;99.90;;;13.43;100.00;98748.69;5053459;28;20033;-81
2024/04/01 00:24:49;;;;;;;26.30;16.65;;;8.10;99.90;;;13.16;100.00;98757.25;5054960;28;20040;-81
2024/04/01 00:27:15;;;;;;;30.52;17.25;;;8.10;99.90;;;13.22;100.00;98742.44;5054798;28;20049;-82
2024/04/01 00:29:41;;;;;;;27.92;16.83;;;8.10;99.90;;;13.32;100.00;98736.91;5054953;28;20075;-81
2024/04/01 00:32:07;;;;;;;31.52;16.98;;;8.00;99.90;;;13.63;100.00;98771.56;5053080;28;20034;-81
2024/04/01 00:34:32;;;;;;;30.17;16.90;;;8.20;99.90;;;13.70;100.00;98771.25;5054318;28;20444;-80
2024/04/01 00:36:58;;;;;;;31.10;18.38;;;8.50;99.90;;;13.17;100.00;98769.84;5053031;28;20036;-81
2024/04/01 00:39:24;;;;;;;29.02;17.60;;;8.70;99.90;;;13.08;100.00;98764.13;5054357;28;20063;-81
2024/04/01 00:41:50;;;;;;;33.25;19.33;;;8.80;99.90;;;12.94;100.00;98758.41;5054139;28;20036;-81
2024/04/01 00:44:16;;;;;;;37.72;19.25;;;8.80;99.90;;;12.99;100.00;98774.00;5054202;28;20041;-81
2024/04/01 00:46:42;;;;;;;31.08;18.98;;;8.80;99.90;;;13.19;100.00;98767.63;5054029;28;20045;-81
2024/04/01 00:49:08;;;;;;;35.15;18.55;;;8.70;99.90;;;13.28;100.00;98757.75;5054072;28;20460;-81
2024/04/01 00:51:34;;;;;;;32.38;17.52;;;8.70;99.90;;;13.51;100.00;98764.50;5053973;28;20468;-81
2024/04/01 00:54:02;;;;;;;29.70;18.52;;;8.70;99.90;;;13.55;100.00;98734.63;5054004;28;20037;-81
2024/04/01 00:56:29;;;;;;;30.17;17.67;;;8.70;99.90;;;13.76;100.00;98723.53;5053794;28;20071;-82
2024/04/01 00:58:59;;;;;;;28.38;16.88;;;8.60;99.90;;;13.70;100.00;98727.41;5053507;28;20083;-81
2024/04/01 01:01:29;;;;;;;30.45;16.77;;;8.50;99.90;;;13.77;100.00;98733.38;5053614;28;20049;-81
2024/04/01 01:03:55;;;;;;;28.58;18.23;;;8.40;99.90;;;13.57;100.00;98729.69;5053726;28;20134;-81
2024/04/01 01:06:23;;;;;;;34.45;18.67;;;8.30;99.90;;;13.49;100.00;98730.28;5053699;28;20118;-81
2024/04/01 01:08:50;;;;;;;26.60;17.30;;;8.30;99.90;;;13.46;100.00;98717.97;5053584;28;20041;-81
2024/04/01 01:11:16;;;;;;;28.80;17.83;;;8.20;99.90;;;13.13;100.00;98714.00;5053885;28;20120;-81
2024/04/01 01:13:41;;;;;;;28.98;17.00;;;8.20;99.90;;;13.26;100.00;98693.41;5035528;28;20156;-81
2024/04/01 01:16:08;;;;;;;30.10;18.13;;;8.10;99.90;;;13.20;100.00;98709.88;5035735;28;20510;-81
2024/04/01 01:18:34;;;;;;;27.30;18.13;;;8.00;99.90;;;13.27;100.00;98695.03;5053446;28;20465;-81
2024/04/01 01:20:59;;;;;;;28.38;17.63;;;7.90;99.90;;;13.34;100.00;98712.81;5053370;28;20036;-80
2024/04/01 01:23:25;;;;;;;29.13;17.52;;;7.90;99.90;;;13.22;100.00;98704.94;5053353;28;20067;-80
2024/04/01 01:25:51;;;;;;;33.95;19.00;;;7.80;99.90;;;13.23;100.00;98705.72;5053292;28;20033;-80
2024/04/01 01:28:16;;;;;;;29.52;18.20;;;7.80;99.90;;;13.13;100.00;98694.84;5041138;28;20530;-81
2024/04/01 01:30:42;;;;;;;35.13;18.83;;;7.80;99.90;;;13.08;100.00;98696.50;5015611;28;20041;-81
2024/04/01 01:33:09;;;;;;;27.90;19.00;;;7.80;99.90;;;13.18;100.00;98686.59;5015728;28;20049;-81
2024/04/01 01:35:37;;;;;;;32.95;19.63;;;7.80;99.90;;;13.08;100.00;98691.03;5015425;28;20392;-80
2024/04/01 01:38:03;;;;;;;;;;;7.80;99.90;;;13.21;100.00;98692.34;5033749;28;20096;-80
2024/04/01 01:40:29;;;;;;;30.73;18.42;;;7.80;99.90;;;13.07;100.00;98685.84;5033226;28;19920;-80
2024/04/01 01:42:56;;;;;;;29.30;18.60;;;7.70;99.90;;;13.11;100.00;98678.69;5033074;28;20045;-80
2024/04/01 01:45:22;;;;;;;31.25;19.25;;;7.60;99.90;;;13.04;100.00;98678.19;5033212;28;20111;-80
2024/04/01 01:47:48;;;;;;;31.73;19.75;;;7.60;99.90;;;12.86;100.00;98679.66;5033124;28;20420;-80
2024/04/01 01:50:13;;;;;;;34.75;20.63;;;7.70;99.90;;;12.61;100.00;98656.75;5033071;28;20488;-80
2024/04/01 01:52:39;;;;;;;35.33;20.35;;;7.70;99.90;;;12.73;100.00;98670.94;5032976;28;20036;-80
2024/04/01 01:55:06;;;;;;;34.33;20.67;;;7.70;99.90;;;12.80;100.00;98676.94;5033004;28;20211;-80
2024/04/01 01:57:33;;;;;;;33.60;20.08;;;7.70;99.90;;;13.00;100.00;98677.94;5032856;28;20033;-80
2024/04/01 01:59:59;;;;;;;35.03;20.67;;;7.70;99.90;;;12.87;100.00;98670.34;5032671;28;20392;-80
2024/04/01 02:02:25;;;;;;;35.10;20.05;;;7.70;99.90;;;13.07;100.00;98680.34;5032632;28;20079;-80
2024/04/01 02:04:51;;;;;;;33.45;20.30;;;7.60;99.90;;;13.07;100.00;98700.34;5032876;28;20041;-80
2024/04/01 02:07:17;;;;;;;31.65;20.98;;;7.70;99.90;;;13.12;100.00;98693.22;5032770;28;20045;-81
2024/04/01 02:09:43;;;;;;;32.33;21.75;;;7.70;99.90;;;12.96;100.00;98696.00;5032636;28;20450;-80
2024/04/01 02:12:08;;;;;;;36.17;21.08;;;7.70;99.90;;;12.96;100.00;98693.28;5031856;28;20044;-80
2024/04/01 02:14:35;;;;;;;32.05;21.88;;;7.70;99.90;;;12.99;100.00;98683.69;5014895;28;20045;-80
2024/04/01 02:17:01;;;;;;;37.08;22.83;;;7.70;99.90;;;13.01;100.00;98689.69;5032569;28;20038;-80
2024/04/01 02:19:27;;;;;;;35.85;23.27;;;7.80;99.90;;;12.95;100.00;98684.25;5014886;28;20409;-80
2024/04/01 02:21:52;;;;;;;36.35;22.60;;;7.80;99.90;;;12.94;100.00;98684.53;5030985;28;20041;-80
2024/04/01 02:24:18;;;;;;;33.97;21.80;;;7.80;99.90;;;13.06;100.00;98679.56;5032483;28;20048;-80
2024/04/01 02:26:47;;;;;;;37.00;21.45;;;7.80;99.90;;;13.19;100.00;98682.75;5032313;28;20048;-80
2024/04/01 02:29:14;;;;;;;37.65;23.30;;;7.80;99.90;;;13.06;100.00;98685.03;5014657;28;20037;-80
2024/04/01 02:31:40;;;;;;;41.60;24.30;;;7.80;99.90;;;12.86;100.00;98685.13;5032348;28;20377;-80
2024/04/01 02:34:07;;;;;;;37.75;22.17;;;7.80;99.90;;;13.02;100.00;98677.66;5032518;28;20041;-81
2024/04/01 02:36:34;;;;;;;36.58;22.85;;;7.80;99.90;;;13.07;100.00;98674.88;5032314;28;20124;-80
2024/04/01 02:38:59;;;;;;;39.67;22.77;;;7.80;99.90;;;13.14;100.00;98666.38;5032332;28;20040;-81
2024/04/01 02:41:25;;;;;;;34.78;22.88;;;7.70;99.90;;;13.17;100.00;98674.84;4998106;28;20457;-82
2024/04/01 02:43:51;;;;;;;33.85;22.85;;;7.70;99.90;;;13.18;100.00;98670.19;5032254;28;20477;-80
2024/04/01 02:46:17;;;;;;;38.10;25.00;;;7.80;99.90;;;13.18;100.00;98661.97;5032414;28;20064;-79
2024/04/01 02:48:42;;;;;;;39.47;24.85;;;7.80;99.90;;;12.90;100.00;98650.63;5014258;28;20041;-82
2024/04/01 02:51:08;;;;;;;39.50;24.65;;;7.80;99.90;;;12.72;100.00;98655.59;5032282;28;20477;-82
2024/04/01 02:53:34;;;;;;;41.40;25.05;;;7.90;99.90;;;12.70;100.00;98646.88;5031972;28;20041;-82
2024/04/01 02:56:00;;;;;;;45.78;25.20;;;7.90;99.90;;;12.30;100.00;98611.19;5032325;28;20037;-82
2024/04/01 02:58:25;;;;;;;37.42;23.77;;;8.00;99.90;;;12.05;100.00;98606.59;5031789;28;20436;-80
2024/04/01 03:00:51;;;;;;;40.47;23.25;;;8.10;99.90;;;11.86;100.00;98593.47;5032105;28;20083;-79
2024/04/01 03:03:17;;;;;;;38.97;24.25;;;8.10;99.90;;;12.27;100.00;98598.06;5032049;28;20090;-80
2024/04/01 03:05:42;;;;;;;39.63;24.83;;;8.20;99.90;;;12.73;100.00;98597.09;5014410;28;20060;-80
2024/04/01 03:08:09;;;;;;;41.78;25.35;;;8.20;99.90;;;12.85;100.00;98604.94;5014210;28;20051;-81
2024/04/01 03:10:36;;;;;;;40.63;24.75;;;8.20;99.90;;;13.07;100.00;98600.97;5031976;28;20061;-80
2024/04/01 03:13:06;;;;;;;37.47;24.92;;;8.20;99.90;;;13.00;100.00;98590.38;5014264;28;20112;-80
2024/04/01 03:15:34;;;;;;;42.15;25.00;;;8.20;99.90;;;12.72;100.00;98583.66;5032029;28;20152;-81
2024/04/01 03:18:00;;;;;;;38.97;24.85;;;8.30;99.90;;;12.84;100.00;98577.88;5014206;28;20091;-80
2024/04/01 03:20:26;;;;;;;38.97;23.85;;;8.30;99.90;;;12.78;100.00;98579.81;5031862;28;20041;-80
2024/04/01 03:22:52;;;;;;;36.90;23.15;;;8.30;99.90;;;12.87;100.00;98585.50;5015058;28;20364;-81
2024/04/01 03:25:18;;;;;;;37.80;23.70;;;8.30;99.90;;;12.97;100.00;98590.91;5051201;28;20037;-80
2024/04/01 03:27:44;;;;;;;41.33;24.15;;;8.30;99.90;;;13.13;100.00;98571.66;5035673;28;20516;-80
2024/04/01 03:30:10;;;;;;;36.05;23.45;;;8.30;99.90;;;13.19;100.00;98595.16;5035713;28;20092;-80
2024/04/01 03:32:37;;;;;;;40.78;23.55;;;8.20;99.90;;;13.41;100.00;98596.66;5035542;28;20048;-80
2024/04/01 03:35:04;;;;;;;35.53;23.05;;;8.20;99.90;;;13.43;100.00;98591.72;5035696;28;20041;-80
2024/04/01 03:37:30;;;;;;;34.83;21.97;;;8.20;99.90;;;13.23;100.00;98602.53;5035566;28;20078;-80
2024/04/01 03:39:56;;;;;;;38.72;23.08;;;8.10;99.90;;;13.37;100.00;98596.38;5035455;28;20491;-80
2024/04/01 03:42:22;;;;;;;34.60;23.02;;;8.00;99.90;;;13.41;100.00;98602.94;5035270;28;20041;-80
2024/04/01 03:44:53;;;;;;;35.42;22.05;;;8.00;99.90;;;13.25;100.00;98569.38;5035409;28;20045;-80
2024/04/01 03:47:20;;;;;;;37.63;23.58;;;8.00;99.90;;;13.53;100.00;98594.41;5017621;28;20472;-81
2024/04/01 03:49:47;;;;;;;41.03;23.27;;;8.00;99.90;;;13.51;100.00;98593.84;5017463;28;20033;-80
2024/04/01 03:52:13;;;;;;;44.67;24.65;;;8.00;99.90;;;13.56;100.00;98598.47;5035298;28;20041;-80
2024/04/01 03:54:38;;;;;;;36.67;24.13;;;8.10;99.90;;;13.51;100.00;98591.94;5050345;28;20037;-80
2024/04/01 03:57:04;;;;;;;37.08;24.60;;;8.10;99.90;;;13.64;100.00;98612.38;5035325;28;20040;-81
2024/04/01 03:59:30;;;;;;;39.75;24.48;;;8.20;99.90;;;13.26;100.00;98601.16;5035022;28;20416;-80
2024/04/01 04:01:56;;;;;;;43.05;25.13;;;8.20;99.90;;;13.19;100.00;98617.06;5017385;28;20041;-81
2024/04/01 04:04:21;;;;;;;41.47;25.08;;;8.20;99.90;;;13.27;100.00;98615.63;5033779;28;20132;-80
2024/04/01 04:06:47;;;;;;;45.72;26.33;;;8.20;99.90;;;13.24;100.00;98625.22;5035290;28;20046;-80
2024/04/01 04:09:16;;;;;;;44.00;25.90;;;8.30;99.90;;;13.67;100.00;98621.94;5037150;28;20036;-80
2024/04/01 04:11:49;;;;;;;44.42;25.20;;;8.40;99.90;;;12.72;100.00;98613.75;5019400;28;20056;-81
2024/04/01 04:14:17;;;;;;;39.88;24.30;;;8.40;99.90;;;12.74;100.00;98595.97;5020311;28;20033;-81
2024/04/01 04:16:47;;;;;;;42.47;23.65;;;8.40;99.90;;;12.48;100.00;98587.06;5034900;28;20124;-80
2024/04/01 04:19:17;;;;;;;39.22;25.05;;;8.50;99.90;;;12.28;100.00;98571.56;5034819;28;20037;-79
2024/04/01 04:21:43;;;;;;;41.28;24.50;;;8.60;99.90;;;12.28;100.00;98566.09;5034573;28;20049;-79
2024/04/01 04:24:11;;;;;;;34.28;21.67;;;8.60;99.90;;;12.12;100.00;98557.13;5034635;28;20127;-79
2024/04/01 04:26:37;;;;;;;34.08;21.70;;;8.60;99.90;;;12.14;100.00;98554.94;5034587;28;20473;-79
2024/04/01 04:29:03;;;;;;;33.60;21.55;;;8.50;99.90;;;12.23;100.00;98543.16;5049894;28;20037;-80
2024/04/01 04:31:30;;;;;;;32.75;21.63;;;8.50;99.90;;;12.47;100.00;98537.03;5016802;28;20041;-80
2024/04/01 04:33:57;;;;;;;38.08;22.33;;;8.50;99.90;;;12.48;100.00;98543.31;5016281;28;20033;-81
2024/04/01 04:36:23;;;;;;;34.97;22.15;;;8.60;99.90;;;12.56;100.00;98536.44;5033981;28;20029;-81
2024/04/01 04:38:49;;;;;;;36.10;21.13;;;8.60;99.90;;;12.55;100.00;98543.00;5034351;28;20041;-80
2024/04/01 04:41:17;;;;;;;40.00;23.08;;;8.70;99.90;;;12.66;100.00;98534.47;5034218;28;20431;-81
2024/04/01 04:43:44;;;;;;;32.45;21.50;;;8.70;99.90;;;12.68;100.00;98523.22;5034358;28;20370;-81
2024/04/01 04:46:13;;;;;;;41.00;22.55;;;8.70;99.90;;;12.54;100.00;98505.81;5034247;28;20033;-80
2024/04/01 04:48:44;;;;;;;36.60;22.05;;;8.70;99.90;;;13.01;100.00;98514.53;5016484;28;20037;-81
2024/04/01 04:51:11;;;;;;;30.35;20.98;;;8.70;99.90;;;12.93;100.00;98505.84;5034220;28;20496;-82
2024/04/01 04:53:38;;;;;;;33.63;21.77;;;8.70;99.90;;;12.86;100.00;98491.63;5034027;28;20033;-81
2024/04/01 04:56:04;;;;;;;32.30;21.63;;;8.80;99.90;;;13.47;100.00;98475.00;5016383;28;20037;-81
2024/04/01 04:58:31;;;;;;;33.25;21.35;;;8.80;99.90;;;13.38;100.00;98505.75;5033786;28;20277;-80
2024/04/01 05:00:57;;;;;;;35.90;21.75;;;8.70;99.90;;;13.44;100.00;98505.72;5016288;28;20033;-81
2024/04/01 05:03:23;;;;;;;31.90;20.33;;;8.70;99.90;;;13.27;100.00;98512.44;5015917;28;20382;-81
2024/04/01 05:05:48;;;;;;;33.03;21.25;;;8.70;99.90;;;13.55;100.00;98517.41;5033927;28;20044;-81
2024/04/01 05:08:14;;;;;;;33.42;21.15;;;8.70;99.90;;;13.83;100.00;98523.97;5033890;28;20045;-80
2024/04/01 05:10:42;;;;;;;37.13;21.75;;;8.70;99.90;;;14.03;100.00;98520.19;5033718;28;20040;-81
2024/04/01 05:13:08;;;;;;;32.83;21.65;;;8.70;99.90;;;13.58;100.00;98503.94;5016120;28;20037;-81
2024/04/01 05:15:36;;;;;;;34.47;20.30;;;8.70;99.90;;;14.14;100.00;98520.06;5033694;28;20045;-80
2024/04/01 05:18:03;;;;;;;34.65;21.52;;;8.70;99.90;;;14.26;100.00;98530.59;5033710;28;20132;-81
2024/04/01 05:20:29;;;;;;;39.10;22.65;;;8.80;99.90;;;13.92;100.00;98521.38;5033548;28;20037;-81
2024/04/01 05:22:55;;;;;;;37.35;23.55;;;8.80;99.90;;;13.71;100.00;98513.41;5033469;28;20151;-81
2024/04/01 05:25:21;;;;;;;38.70;23.33;;;8.80;99.90;;;14.08;100.00;98511.91;5049048;28;20109;-81
2024/04/01 05:27:47;;;;;;;36.38;23.85;;;8.80;99.90;;;14.09;100.00;98509.97;5015888;28;20052;-81
2024/04/01 05:30:15;;;;;;;40.13;24.13;;;8.80;99.90;;;13.49;100.00;98530.31;5033394;28;20029;-81
2024/04/01 05:32:41;;;;;;;37.00;24.13;;;8.80;99.90;;;13.34;100.00;98534.81;5033435;28;20071;-82
2024/04/01 05:35:07;;;;;;;43.60;25.30;;;8.80;99.90;;;13.42;100.00;98527.06;5033558;28;20045;-82
2024/04/01 05:37:33;;;;;;;41.40;25.10;;;8.80;99.90;;;13.70;100.00;98549.31;5033249;28;20045;-81
2024/04/01 05:39:59;;;;;;;37.72;25.17;;;8.80;99.90;;;14.06;100.00;98547.00;5033391;28;20396;-83
2024/04/01 05:42:25;;;;;;;39.00;25.70;;;8.90;99.90;;;13.75;100.00;98530.91;5033307;28;20045;-82
2024/04/01 05:44:51;;;;;;;44.22;26.02;;;8.90;99.90;;;13.06;100.00;98525.44;5033296;28;20037;-83
2024/04/01 05:47:17;;;;;;;41.08;25.30;;;8.80;99.90;;;13.17;100.00;98537.13;5033019;28;20542;-82
2024/04/01 05:49:43;;;;;;;43.97;26.90;;;8.90;99.90;;;13.90;100.00;98537.31;5033063;28;20093;-82
2024/04/01 05:52:09;;;;;;;44.83;26.08;;;8.90;99.90;;;14.12;100.00;98541.47;5033212;28;20455;-82
2024/04/01 05:54:34;;;;;;;40.97;27.23;;;8.90;99.90;;;14.09;100.00;98523.69;5033051;28;20044;-83
2024/04/01 05:57:01;;;;;;;39.78;25.48;;;9.00;99.90;;;13.91;100.00;98560.88;5033155;28;20037;-83
2024/04/01 05:59:28;;;;;;;42.00;26.25;;;9.00;99.90;;;14.18;100.00;98574.03;5015131;28;20129;-82
2024/04/01 06:01:56;;;;;;;43.33;26.45;;;9.00;99.90;;;13.66;100.00;98577.28;5032834;28;20120;-82
2024/04/01 06:04:24;;;;;;;48.17;27.40;;;9.10;99.90;;;13.61;100.00;98563.63;5031385;28;20496;-83
2024/04/01 06:06:51;;;;;;;46.88;27.60;;;9.10;99.90;;;13.76;100.00;98550.88;5015232;28;20503;-82
2024/04/01 06:09:17;;;;;;;43.95;26.20;;;9.10;99.90;;;13.94;100.00;98549.34;5032944;28;20034;-83
2024/04/01 06:11:43;;;;;;;39.22;25.10;;;9.10;99.90;;;13.98;100.00;98541.34;5032846;28;20120;-83
2024/04/01 06:14:09;;;;;;;38.20;25.42;;;9.20;99.90;;;14.15;100.00;98549.09;5032968;28;20045;-83
2024/04/01 06:16:39;;;;;;;41.83;25.00;;;9.20;99.90;;;14.41;100.00;98549.63;5037104;28;20097;-84
2024/04/01 06:19:06;;;;;;;45.28;26.52;;;9.20;99.90;;;14.26;100.00;98558.88;5037895;28;20041;-83
2024/04/01 06:21:32;;;;;;;46.38;27.08;;;9.30;99.90;;;13.95;100.00;98562.75;5043184;28;20041;-84
2024/04/01 06:23:58;;;;;;;39.15;25.33;;;9.20;99.90;;;13.96;100.00;98574.53;5032946;28;20034;-83
2024/04/01 06:26:26;;;;;;;41.88;25.20;;;9.30;99.90;;;13.66;100.00;98585.50;5032360;28;20427;-84
2024/04/01 06:28:52;;;;;;;39.50;25.58;;;9.30;99.90;;;13.75;100.00;98573.91;5032198;28;20116;-82
2024/04/01 06:31:17;;;;;;;41.63;25.55;;;9.20;99.90;;;14.02;100.00;98580.78;5032231;28;20072;-83
2024/04/01 06:33:44;;;;;;;40.17;24.67;;;9.20;99.90;;;13.72;100.00;98585.44;5031987;28;20122;-82
2024/04/01 06:36:10;;;;;;;41.42;26.70;;;9.10;99.90;;;13.94;100.00;98539.19;5032144;28;20502;-84
2024/04/01 06:38:37;;;;;;;46.10;27.55;;;9.10;99.90;;;13.99;100.00;98564.91;5032017;28;20551;-83
2024/04/01 06:41:03;;;;;;;43.72;27.33;;;9.10;99.90;;;13.93;100.00;98556.75;5031961;28;20119;-84
2024/04/01 06:43:30;;;;;;;41.00;27.42;;;9.10;99.90;;;14.21;100.00;98569.91;5032112;28;20053;-84
2024/04/01 06:45:58;;;;;;;46.38;28.50;;;9.10;99.90;;;14.29;100.00;98554.69;5032099;28;20120;-84
2024/04/01 06:48:24;;;;;;;41.95;27.88;;;9.20;99.90;;;14.28;100.00;98551.16;5031988;28;20086;-83
2024/04/01 06:50:51;;;;;;;48.03;28.75;;;9.20;99.90;;;14.21;100.00;98554.25;5031992;28;20120;-83
2024/04/01 06:53:17;;;;;;;45.05;27.67;;;9.20;99.90;;;13.57;100.00;98545.31;5032055;28;20049;-84
2024/04/01 06:55:44;;;;;;;48.05;28.02;;;9.30;99.90;;;12.91;100.00;98518.16;5032118;28;20029;-83
2024/04/01 06:58:10;;;;;;;46.42;28.85;;;9.30;99.90;;;13.59;100.00;98499.28;5013838;28;20459;-83
2024/04/01 07:00:37;;;;;;;48.15;28.48;;;9.30;99.90;;;14.48;100.00;98510.88;5010773;28;20049;-84
2024/04/01 07:03:03;;;;;;;50.15;29.27;;;9.40;99.90;;;13.89;100.00;98503.63;5012256;28;20037;-81
2024/04/01 07:05:30;;;;;;;49.13;29.35;;;9.40;99.90;;;14.05;100.00;98489.72;5012172;28;20579;-84
2024/04/01 07:07:56;;;;;;;54.72;30.23;;;9.50;99.90;;;14.71;100.00;98490.00;5012516;28;20046;-83
2024/04/01 07:10:22;;;;;;;58.55;32.22;;;9.50;99.90;;;14.77;100.00;98498.97;5012506;28;20038;-84
2024/04/01 07:12:48;;;;;;;55.53;31.83;;;9.70;99.90;;;14.79;100.00;98497.53;5011928;28;20045;-85
2024/04/01 07:15:14;;;;;;;55.20;31.92;;;9.70;99.90;;;14.85;100.00;98506.53;5012095;28;20113;-85
2024/04/01 07:17:39;;;;;;;54.80;31.42;;;9.80;99.90;;;14.84;100.00;98504.91;5011790;28;20091;-82
2024/04/01 07:20:07;;;;;;;52.70;31.60;;;9.80;99.90;;;15.31;100.00;98491.22;5011917;28;20437;-83
2024/04/01 07:22:33;;;;;;;50.00;30.52;;;9.90;99.90;;;15.51;100.00;98501.03;5010508;28;20042;-84
2024/04/01 07:24:59;;;;;;;59.90;31.83;;;10.10;99.90;;;15.72;100.00;98488.88;5011783;28;20037;-84
2024/04/01 07:27:25;;;;;;;51.53;29.90;;;10.20;99.90;;;15.86;100.00;98489.69;5011806;28;20048;-84
2024/04/01 07:29:51;;;;;;;51.53;29.80;;;10.20;99.90;;;14.96;100.00;98486.03;5010471;28;20033;-83
2024/04/01 07:32:17;;;;;;;48.83;30.08;;;10.10;99.90;;;15.47;100.00;98486.28;5010485;28;20711;-83
2024/04/01 07:34:42;;;;;;;47.35;29.17;;;10.20;99.90;;;15.37;100.00;98484.53;5011588;28;20104;-83
2024/04/01 07:37:08;;;;;;;47.30;29.50;;;10.10;99.90;;;15.41;100.00;98489.44;5011823;28;20390;-84
2024/04/01 07:39:34;;;;;;;50.10;29.73;;;10.20;99.90;;;15.89;100.00;98491.84;5011641;28;20032;-84
2024/04/01 07:42:00;;;;;;;46.03;29.17;;;10.30;99.90;;;15.08;100.00;98487.50;5011700;28;20084;-83
2024/04/01 07:44:26;;;;;;;50.15;29.40;;;10.30;99.90;;;14.61;100.00;98481.88;5011577;28;20140;-82
2024/04/01 07:46:51;;;;;;;51.03;29.02;;;10.30;99.90;;;14.42;100.00;98488.16;5011644;28;20041;-83
2024/04/01 07:49:17;;;;;;;44.97;27.17;;;10.30;99.90;;;14.00;100.00;98492.53;5011606;28;20060;-83
2024/04/01 07:51:43;;;;;;;42.92;27.48;;;10.30;99.90;;;15.18;100.00;98508.50;5011560;28;20065;-84
2024/04/01 07:54:08;;;;;;;45.03;27.73;;;10.30;99.90;;;15.70;100.00;98513.91;5011551;28;20257;-84
2024/04/01 07:56:35;;;;;;;44.13;26.70;;;10.40;99.90;;;15.70;100.00;98535.09;5011536;28;20042;-84
2024/04/01 07:59:01;;;;;;;48.28;28.58;;;10.50;99.90;;;15.91;100.00;98525.38;5010096;28;20056;-85
2024/04/01 08:01:27;;;;;;;43.45;27.33;;;10.60;99.90;;;15.94;100.00;98545.94;5011600;28;20034;-85
2024/04/01 08:03:52;;;;;;;40.35;27.10;;;10.80;99.90;;;15.68;100.00;98560.94;5011540;28;20497;-84
2024/04/01 08:06:18;;;;;;;41.83;26.20;;;10.90;99.90;;;15.14;100.00;98576.94;5010416;28;20038;-85
2024/04/01 08:08:44;;;;;;;43.25;24.92;;;10.70;99.90;;;15.42;100.00;98559.75;5011230;28;20038;-83
2024/04/01 08:11:09;;;;;;;41.05;25.67;;;10.70;99.90;;;14.60;100.00;98549.66;5012919;28;20100;-84
2024/04/01 08:13:35;;;;;;;42.90;24.52;;;10.60;99.90;;;15.27;100.00;98545.13;5015175;28;20478;-84
2024/04/01 08:16:03;;;;;;;44.22;26.33;;;10.70;99.90;;;15.97;100.00;98556.31;5013696;28;20034;-83
2024/04/01 08:18:29;;;;;;;;;;;10.90;99.90;;;15.96;100.00;98527.19;5014107;28;20137;-84
2024/04/01 08:20:56;;;;;;;39.83;24.25;;;11.00;99.90;;;15.38;100.00;98526.56;5015124;28;19917;-83
2024/04/01 08:23:22;;;;;;;40.72;24.67;;;11.10;99.90;;;15.98;100.00;98535.16;5015384;28;20129;-84
2024/04/01 08:25:48;;;;;;;41.97;25.65;;;11.20;99.90;;;16.18;100.00;98531.19;5015412;28;20057;-84
2024/04/01 08:28:14;;;;;;;37.65;24.30;;;11.20;99.90;;;15.03;100.00;98515.84;5015147;28;20041;-83
2024/04/01 08:30:39;;;;;;;34.50;23.05;;;11.10;99.90;;;14.28;100.00;98517.41;5015052;28;20038;-84
2024/04/01 08:33:05;;;;;;;37.10;23.40;;;10.90;99.90;;;14.92;100.00;98531.66;5015022;28;20037;-83
2024/04/01 08:35:31;;;;;;;34.67;24.50;;;10.80;99.90;;;15.91;100.00;98536.38;5015059;28;20103;-83
2024/04/01 08:37:57;;;;;;;39.55;25.10;;;10.90;99.90;;;16.40;100.00;98544.22;5013552;28;20041;-84
2024/04/01 08:40:23;;;;;;;35.92;25.10;;;11.10;99.90;;;16.64;100.00;98526.66;5014755;28;20203;-83
2024/04/01 08:42:54;;;;;;;39.05;24.50;;;11.20;99.90;;;16.15;100.00;98518.03;5014791;28;20125;-83
2024/04/01 08:45:21;;;;;;;43.05;26.63;;;11.20;99.90;;;16.77;100.00;98530.50;5014755;28;20096;-83
2024/04/01 08:47:50;;;;;;;45.42;26.85;;;11.30;99.90;;;16.87;100.00;98524.78;5014685;28;20052;-83
2024/04/01 08:50:22;;;;;;;57.15;30.45;;;11.40;99.90;;;16.70;100.00;98491.56;5013578;28;20124;-83
2024/04/01 08:53:02;;;;;;;57.40;32.63;;;11.50;99.90;;;17.20;100.00;98523.75;5013424;28;20125;-84
2024/04/01 08:55:28;;;;;;;45.72;27.02;;;11.60;99.90;;;15.81;100.00;98515.38;5013587;28;20076;-84
2024/04/01 08:57:56;;;;;;;43.92;26.08;;;11.50;99.90;;;15.46;100.00;98505.84;5019136;28;20042;-82
2024/04/01 09:00:22;;;;;;;44.22;24.77;;;11.30;99.90;;;14.89;100.00;98495.78;5039416;28;20050;-82
2024/04/01 09:02:48;;;;;;;38.92;23.17;;;11.20;99.90;;;15.38;100.00;98497.16;5044165;28;20397;-83
2024/04/01 09:05:14;;;;;;;36.88;23.90;;;11.10;99.90;;;15.10;100.00;98496.25;5044064;28;20037;-84
2024/04/01 09:07:40;;;;;;;40.22;24.35;;;11.10;99.90;;;16.08;100.00;98499.19;5042242;28;20048;-83
2024/04/01 09:10:06;;;;;;;40.53;24.50;;;11.10;99.90;;;16.32;100.00;98500.91;5040088;28;20492;-82
2024/04/01 09:12:33;;;;;;;36.55;24.85;;;11.30;99.90;;;16.41;100.00;98529.31;5022569;28;20038;-83
2024/04/01 09:14:59;;;;;;;41.83;26.60;;;11.40;99.90;;;15.78;100.00;98531.63;5042256;28;20064;-82
2024/04/01 09:17:26;;;;;;;44.55;26.70;;;11.50;99.90;;;16.49;100.00;98530.53;5043972;28;20057;-81
2024/04/01 09:19:52;;;;;;;44.40;26.75;;;11.50;99.90;;;16.38;100.00;98541.78;5039518;28;20098;-83
2024/04/01 09:22:17;;;;;;;42.58;26.52;;;11.70;99.90;;;16.94;100.00;98532.56;5037155;28;20045;-82
2024/04/01 09:24:46;;;;;;;46.42;27.48;;;11.70;99.90;;;17.07;100.00;98526.25;5036571;28;20042;-83
2024/04/01 09:27:12;;;;;;;44.85;27.60;;;11.80;99.90;;;17.28;100.00;98522.19;5035443;28;20428;-82
2024/04/01 09:29:37;;;;;;;44.63;27.00;;;11.90;99.90;;;17.10;100.00;98533.88;5035243;28;20033;-80
2024/04/01 09:32:04;;;;;;;46.50;28.00;;;12.00;99.90;;;16.39;100.00;98537.06;5016284;28;20033;-80
2024/04/01 09:34:30;;;;;;;52.53;29.25;;;12.00;99.90;;;16.63;100.00;98538.78;5033827;28;20034;-81
2024/04/01 09:36:56;;;;;;;57.03;32.35;;;11.80;99.90;;;16.87;100.00;98523.94;5016162;28;20099;-81
2024/04/01 09:39:21;;;;;;;57.17;33.67;;;11.80;99.90;;;16.95;100.00;98528.69;5033939;28;20209;-80
2024/04/01 09:41:48;;;;;;;52.83;30.77;;;11.80;99.90;;;17.04;100.00;98526.06;5015988;28;20086;-81
2024/04/01 09:44:13;;;;;;;53.72;30.23;;;11.70;99.90;;;17.22;100.00;98515.97;5033715;28;20088;-81
2024/04/01 09:46:39;;;;;;;54.33;30.27;;;11.80;99.90;;;16.51;100.00;98506.28;5033651;28;20029;-81
2024/04/01 09:49:06;;;;;;;58.15;31.60;;;11.80;99.90;;;16.48;100.00;98504.97;5033559;28;20042;-81
2024/04/01 09:51:34;;;;;;;59.25;33.25;;;11.70;99.90;;;17.06;100.00;98499.84;5033597;28;20040;-81
2024/04/01 09:54:00;;;;;;;63.92;34.90;;;11.90;99.90;;;16.61;100.00;98502.50;5048907;28;20397;-81
2024/04/01 09:57:06;;;;;;;65.78;36.08;;;11.90;99.90;;;16.90;100.00;98499.38;5033061;28;20041;-80
2024/04/01 10:00:16;;;;;;;66.72;37.20;;;11.90;99.90;;;16.89;100.00;98500.50;5015213;28;20081;-80
2024/04/01 10:03:21;;;;;;;66.05;37.08;;;12.00;99.90;;;17.31;100.00;98496.75;5036114;28;20060;-81